createdAt,value
2023-01-17T00:02:26.545Z,6.6
2023-01-17T00:04:57.347Z,9.1
2023-01-17T00:07:28.148Z,7.5
2023-01-17T00:12:39.063Z,6.3
2023-01-17T00:15:09.830Z,7.5
2023-01-17T00:17:40.625Z,7.7
2023-01-17T00:20:11.430Z,8.3
2023-01-17T00:22:42.188Z,8.3
2023-01-17T00:25:22.993Z,28.0
2023-01-17T00:27:53.738Z,6.9
2023-01-17T00:30:24.519Z,7.5
2023-01-17T00:32:55.280Z,8.3
2023-01-17T00:35:26.044Z,7.2
2023-01-17T00:37:56.783Z,6.9
2023-01-17T00:40:37.553Z,24.4
2023-01-17T00:43:08.272Z,6.6
2023-01-17T00:45:39.032Z,6.9
2023-01-17T00:48:09.801Z,7.5
2023-01-17T00:53:20.766Z,30.5
2023-01-17T00:55:51.554Z,8.3
2023-01-17T00:58:22.318Z,6.1
2023-01-17T01:00:53.270Z,6.9
2023-01-17T01:03:24.088Z,7.5
2023-01-17T01:05:54.840Z,7.5
2023-01-17T01:08:35.618Z,8.0
2023-01-17T01:11:06.404Z,5.5
2023-01-17T01:13:37.159Z,7.7
2023-01-17T01:16:07.960Z,7.2
2023-01-17T01:18:38.731Z,7.7
2023-01-17T01:21:09.515Z,7.7
2023-01-17T01:23:50.281Z,9.7
2023-01-17T01:26:21.051Z,8.0
2023-01-17T01:28:51.793Z,6.9
2023-01-17T01:33:52.806Z,7.7
2023-01-17T01:36:23.643Z,9.1
2023-01-17T01:39:04.381Z,6.6
2023-01-17T01:41:35.204Z,8.0
2023-01-17T01:44:05.976Z,6.1
2023-01-17T01:46:36.748Z,6.9
2023-01-17T01:49:07.504Z,7.7
2023-01-17T01:51:38.254Z,6.3
2023-01-17T01:54:19.035Z,5.5
2023-01-17T01:56:49.784Z,6.1
2023-01-17T01:59:20.583Z,6.6
2023-01-17T02:01:51.835Z,6.9
2023-01-17T02:04:22.829Z,7.2
2023-01-17T02:07:03.606Z,8.3
2023-01-17T02:09:34.366Z,6.9
2023-01-17T02:14:35.259Z,6.6
2023-01-17T02:17:06.049Z,7.2
2023-01-17T02:19:36.841Z,4.4
2023-01-17T02:22:17.598Z,6.9
2023-01-17T02:24:48.620Z,5.5
2023-01-17T02:27:19.371Z,5.8
2023-01-17T02:29:50.105Z,6.9
2023-01-17T02:32:20.840Z,6.1
2023-01-17T02:34:51.611Z,19.7
2023-01-17T02:37:32.592Z,6.1
2023-01-17T02:40:03.349Z,9.1
2023-01-17T02:42:34.103Z,7.2
2023-01-17T02:45:04.856Z,7.7
2023-01-17T02:47:35.625Z,7.7
2023-01-17T02:50:06.380Z,7.7
2023-01-17T02:55:17.342Z,3.3
2023-01-17T02:57:48.137Z,17.2
2023-01-17T03:00:18.873Z,5.2
2023-01-17T03:02:49.890Z,5.2
2023-01-17T03:05:20.716Z,4.7
2023-01-17T03:08:01.475Z,3.8
2023-01-17T03:10:32.278Z,3.0
2023-01-17T03:13:03.043Z,6.1
2023-01-17T03:15:33.821Z,5.2
2023-01-17T03:18:04.569Z,6.6
2023-01-17T03:20:45.355Z,3.3
2023-01-17T03:23:16.086Z,5.0
2023-01-17T03:25:46.911Z,4.7
2023-01-17T03:28:17.659Z,24.1
2023-01-17T03:30:48.529Z,30.5
2023-01-17T03:35:59.477Z,6.6
2023-01-17T03:38:30.256Z,7.5
2023-01-17T03:41:01.033Z,4.7
2023-01-17T03:43:31.805Z,4.1
2023-01-17T03:46:02.728Z,4.1
2023-01-17T03:48:33.501Z,5.8
2023-01-17T03:51:14.272Z,5.0
2023-01-17T03:53:45.016Z,4.4
2023-01-17T03:56:15.765Z,3.0
2023-01-17T03:58:46.522Z,4.1
2023-01-17T04:01:17.862Z,6.1
2023-01-17T04:03:48.627Z,3.3
2023-01-17T04:06:29.411Z,3.0
2023-01-17T04:09:00.173Z,3.3
2023-01-17T04:11:30.989Z,3.8
2023-01-17T04:16:32.118Z,1.1
2023-01-17T04:19:02.861Z,3.3
2023-01-17T04:21:43.670Z,3.0
2023-01-17T04:24:15.855Z,3.0
2023-01-17T04:26:47.751Z,1.3
2023-01-17T04:29:18.552Z,1.1
2023-01-17T04:31:49.407Z,0.8
2023-01-17T04:34:30.192Z,0.5
2023-01-17T04:37:00.956Z,1.1
2023-01-17T04:39:31.718Z,0.0
2023-01-17T04:42:02.509Z,0.0
2023-01-17T04:44:33.259Z,0.0
2023-01-17T04:47:04.052Z,0.0
2023-01-17T04:49:44.814Z,1.1
2023-01-17T04:52:15.631Z,0.0
2023-01-17T04:57:16.530Z,5.5
2023-01-17T04:59:47.301Z,0.0
2023-01-17T05:02:18.204Z,0.2
2023-01-17T05:04:59.010Z,1.9
2023-01-17T05:07:29.778Z,1.1
2023-01-17T05:10:00.506Z,1.6
2023-01-17T05:12:31.306Z,0.8
2023-01-17T05:15:02.046Z,0.0
2023-01-17T05:17:32.837Z,0.0
2023-01-17T05:20:13.625Z,0.0
2023-01-17T05:22:44.371Z,0.0
2023-01-17T05:25:15.155Z,1.6
2023-01-17T05:27:45.967Z,0.0
2023-01-17T05:30:16.728Z,0.0
2023-01-17T05:32:57.526Z,0.0
2023-01-17T05:37:58.413Z,0.0
2023-01-17T05:40:29.173Z,0.0
2023-01-17T05:42:59.897Z,0.0
2023-01-17T05:45:30.858Z,0.0
2023-01-17T05:48:11.701Z,0.0
2023-01-17T05:50:42.505Z,0.0
2023-01-17T05:53:13.264Z,0.0
2023-01-17T05:55:44.014Z,0.0
2023-01-17T05:58:14.782Z,0.0
2023-01-17T06:00:45.570Z,0.0
2023-01-17T06:03:26.336Z,0.0
2023-01-17T06:05:57.129Z,0.0
2023-01-17T06:08:27.870Z,0.0
2023-01-17T06:10:58.669Z,0.0
2023-01-17T06:13:29.435Z,1.3
2023-01-17T06:18:40.627Z,0.0
2023-01-17T06:21:11.397Z,0.0
2023-01-17T06:23:42.176Z,0.2
2023-01-17T06:26:12.982Z,0.0
2023-01-17T06:28:43.753Z,0.0
2023-01-17T06:31:14.632Z,0.0
2023-01-17T06:33:55.455Z,0.0
2023-01-17T06:36:26.229Z,0.0
2023-01-17T06:38:57.097Z,0.0
2023-01-17T06:41:27.851Z,0.0
2023-01-17T06:43:58.619Z,0.0
2023-01-17T06:46:39.523Z,0.0
2023-01-17T06:49:10.302Z,0.0
2023-01-17T06:51:43.508Z,0.0
2023-01-17T06:54:04.318Z,0.0
2023-01-17T06:59:15.229Z,0.0
2023-01-17T07:01:56.208Z,0.0
2023-01-17T07:04:27.102Z,0.0
2023-01-17T07:06:57.916Z,0.0
2023-01-17T07:09:28.688Z,0.0
2023-01-17T07:11:59.439Z,0.0
2023-01-17T07:14:30.204Z,0.0
2023-01-17T07:17:10.988Z,0.0
2023-01-17T07:19:41.748Z,0.0
2023-01-17T07:22:12.568Z,0.0
2023-01-17T07:24:43.348Z,0.0
2023-01-17T07:27:14.133Z,0.0
2023-01-17T07:29:44.914Z,0.2
2023-01-17T07:32:25.704Z,0.0
2023-01-17T07:34:56.455Z,0.0
2023-01-17T07:39:57.344Z,0.0
2023-01-17T07:42:28.103Z,0.0
2023-01-17T07:45:01.630Z,0.0
2023-01-17T07:47:32.418Z,0.0
2023-01-17T07:50:03.230Z,0.0
2023-01-17T07:52:34.007Z,0.0
2023-01-17T07:55:04.768Z,0.8
2023-01-17T07:57:35.515Z,0.0
2023-01-17T08:00:16.305Z,0.5
2023-01-17T08:02:47.074Z,0.5
2023-01-17T08:05:17.996Z,0.0
2023-01-17T08:07:48.740Z,0.0
2023-01-17T08:10:19.504Z,0.0
2023-01-17T08:12:50.293Z,0.0
2023-01-17T08:15:31.043Z,0.0
2023-01-17T08:20:31.938Z,0.0
2023-01-17T08:23:02.700Z,0.0
2023-01-17T08:25:33.643Z,0.0
2023-01-17T08:28:04.472Z,0.0
2023-01-17T08:30:45.291Z,0.0
2023-01-17T08:33:16.120Z,0.0
2023-01-17T08:35:46.870Z,0.0
2023-01-17T08:38:17.590Z,0.0
2023-01-17T08:40:48.372Z,0.0
2023-01-17T08:43:19.117Z,0.0
2023-01-17T08:46:00.419Z,0.2
2023-01-17T08:48:31.248Z,0.0
2023-01-17T08:51:02.006Z,0.0
2023-01-17T08:53:32.794Z,0.0
2023-01-17T08:56:03.593Z,0.0
2023-01-17T09:01:15.055Z,0.0
2023-01-17T09:03:45.891Z,0.2
2023-01-17T09:06:16.676Z,0.0
2023-01-17T09:08:47.440Z,0.0
2023-01-17T09:11:18.244Z,0.2
2023-01-17T09:13:59.019Z,0.2
2023-01-17T09:16:29.907Z,0.0
2023-01-17T09:19:00.701Z,0.0
2023-01-17T09:21:31.458Z,0.0
2023-01-17T09:24:02.206Z,0.0
2023-01-17T09:26:32.991Z,0.0
2023-01-17T09:29:13.770Z,0.0
2023-01-17T09:31:44.545Z,0.0
2023-01-17T09:34:15.340Z,0.0
2023-01-17T09:36:46.106Z,0.0
2023-01-17T09:41:46.987Z,0.5
2023-01-17T09:44:27.772Z,0.8
2023-01-17T09:46:58.594Z,0.0
2023-01-17T09:49:29.456Z,0.0
2023-01-17T09:52:00.234Z,0.5
2023-01-17T09:54:30.986Z,0.0
2023-01-17T09:57:11.774Z,1.1
2023-01-17T09:59:45.937Z,0.0
2023-01-17T10:02:17.443Z,0.0
2023-01-17T10:04:48.552Z,0.0
2023-01-17T10:07:19.334Z,0.8
2023-01-17T10:09:50.106Z,0.0
2023-01-17T10:12:30.840Z,0.0
2023-01-17T10:15:01.615Z,0.0
2023-01-17T10:17:32.381Z,0.8
2023-01-17T10:22:33.320Z,0.8
2023-01-17T10:25:04.053Z,1.6
2023-01-17T10:27:44.880Z,0.8
2023-01-17T10:30:15.941Z,0.0
2023-01-17T10:32:46.742Z,0.2
2023-01-17T10:35:17.507Z,0.0
2023-01-17T10:37:48.300Z,0.0
2023-01-17T10:40:19.167Z,0.8
2023-01-17T10:42:59.989Z,0.0
2023-01-17T10:45:30.781Z,0.2
2023-01-17T10:48:01.570Z,0.0
2023-01-17T10:50:32.354Z,0.0
2023-01-17T10:53:03.162Z,0.5
2023-01-17T10:55:33.935Z,0.5
2023-01-17T10:58:14.759Z,1.9
2023-01-17T11:03:15.823Z,0.0
2023-01-17T11:05:46.617Z,0.0
2023-01-17T11:08:17.375Z,0.5
2023-01-17T11:10:58.133Z,0.8
2023-01-17T11:13:28.898Z,0.0
2023-01-17T11:15:59.871Z,0.0
2023-01-17T11:18:30.686Z,0.0
2023-01-17T11:21:01.453Z,0.0
2023-01-17T11:23:32.219Z,0.5
2023-01-17T11:26:13.000Z,0.0
2023-01-17T11:28:43.781Z,0.0
2023-01-17T11:31:14.679Z,5.5
2023-01-17T11:33:45.545Z,2.2
2023-01-17T11:36:16.342Z,0.0
2023-01-17T11:38:47.114Z,0.2
2023-01-17T11:43:58.208Z,0.2
2023-01-17T11:46:29.251Z,2.7
2023-01-17T11:49:00.102Z,0.8
2023-01-17T11:51:30.990Z,1.3
2023-01-17T11:54:01.721Z,2.2
2023-01-17T11:56:43.035Z,2.7
2023-01-17T11:59:13.810Z,0.5
2023-01-17T12:01:44.665Z,0.8
2023-01-17T12:04:15.592Z,0.0
2023-01-17T12:07:01.715Z,0.0
2023-01-17T12:09:12.478Z,0.0
2023-01-17T12:11:53.278Z,0.0
2023-01-17T12:14:24.058Z,0.5
2023-01-17T12:16:54.831Z,1.1
2023-01-17T12:19:25.592Z,0.8
2023-01-17T12:24:36.611Z,2.2
2023-01-17T12:27:07.405Z,0.8
2023-01-17T12:29:38.190Z,0.0
2023-01-17T12:32:08.939Z,0.5
2023-01-17T12:34:39.712Z,2.5
2023-01-17T12:37:10.483Z,2.7
2023-01-17T12:39:51.221Z,2.5
2023-01-17T12:42:22.070Z,1.1
2023-01-17T12:44:52.930Z,3.3
2023-01-17T12:47:23.759Z,1.3
2023-01-17T12:49:54.518Z,4.4
2023-01-17T12:52:25.308Z,2.5
2023-01-17T12:55:06.133Z,3.3
2023-01-17T12:57:36.906Z,3.6
2023-01-17T13:00:07.676Z,2.2
2023-01-17T13:05:19.329Z,3.6
2023-01-17T13:07:40.104Z,3.0
2023-01-17T13:10:20.903Z,3.3
2023-01-17T13:12:51.662Z,4.4
2023-01-17T13:15:22.434Z,2.5
2023-01-17T13:17:53.213Z,4.4
2023-01-17T13:20:23.945Z,12.7
2023-01-17T13:23:04.721Z,2.2
2023-01-17T13:25:35.536Z,1.6
2023-01-17T13:28:06.305Z,1.1
2023-01-17T13:30:37.108Z,1.3
2023-01-17T13:33:07.864Z,1.6
2023-01-17T13:35:38.692Z,15.2
2023-01-17T13:38:19.521Z,13.0
2023-01-17T13:40:50.289Z,3.3
2023-01-17T13:45:51.404Z,4.7
2023-01-17T13:48:22.161Z,4.7
2023-01-17T13:50:53.005Z,5.5
2023-01-17T13:53:33.798Z,4.1
2023-01-17T13:56:04.626Z,5.0
2023-01-17T13:58:35.416Z,6.3
2023-01-17T14:01:06.512Z,5.8
2023-01-17T14:03:37.308Z,4.7
2023-01-17T14:06:08.232Z,4.1
2023-01-17T14:08:49.015Z,2.5
2023-01-17T14:11:20.296Z,2.5
2023-01-17T14:13:51.040Z,3.6
2023-01-17T14:16:21.947Z,3.0
2023-01-17T14:18:52.795Z,5.0
2023-01-17T14:21:33.629Z,3.8
2023-01-17T14:26:34.540Z,4.7
2023-01-17T14:29:05.292Z,4.4
2023-01-17T14:31:36.221Z,5.2
2023-01-17T14:34:06.972Z,4.4
2023-01-17T14:36:47.749Z,3.3
2023-01-17T14:39:19.204Z,4.7
2023-01-17T14:41:49.997Z,4.4
2023-01-17T14:44:20.756Z,3.6
2023-01-17T14:46:51.559Z,4.1
2023-01-17T14:49:22.325Z,3.6
2023-01-17T14:52:03.206Z,4.1
2023-01-17T14:54:33.983Z,3.8
2023-01-17T14:59:34.913Z,5.2
2023-01-17T15:02:19.481Z,5.5
2023-01-17T15:07:20.555Z,5.0
2023-01-17T15:09:51.329Z,3.8
2023-01-17T15:12:22.071Z,4.1
2023-01-17T15:14:52.892Z,4.7
2023-01-17T15:17:23.727Z,2.5
2023-01-17T15:19:54.482Z,3.6
2023-01-17T15:22:35.247Z,11.9
2023-01-17T15:25:06.013Z,2.7
2023-01-17T15:27:36.781Z,3.6
2023-01-17T15:30:07.575Z,2.7
2023-01-17T15:32:38.321Z,7.5
2023-01-17T15:35:19.069Z,2.2
2023-01-17T15:37:49.849Z,1.1
2023-01-17T15:40:20.653Z,1.1
2023-01-17T15:42:51.456Z,1.1
2023-01-17T15:47:52.343Z,1.1
2023-01-17T15:50:33.115Z,1.3
2023-01-17T15:53:03.881Z,1.1
2023-01-17T15:55:34.737Z,2.5
2023-01-17T15:58:05.512Z,1.6
2023-01-17T16:00:36.271Z,1.6
2023-01-17T16:03:07.187Z,2.2
2023-01-17T16:05:47.974Z,2.5
2023-01-17T16:08:18.701Z,10.2
2023-01-17T16:10:49.614Z,3.0
2023-01-17T16:13:20.494Z,3.8
2023-01-17T16:15:51.355Z,16.1
2023-01-17T16:18:22.130Z,5.2
2023-01-17T16:21:02.943Z,5.0
2023-01-17T16:23:33.765Z,4.4
2023-01-17T16:28:34.723Z,3.3
2023-01-17T16:31:05.678Z,3.6
2023-01-17T16:33:46.451Z,16.9
2023-01-17T16:36:17.249Z,1.9
2023-01-17T16:38:48.026Z,2.7
2023-01-17T16:41:18.788Z,3.0
2023-01-17T16:43:49.550Z,1.9
2023-01-17T16:46:20.419Z,2.7
2023-01-17T16:49:01.243Z,1.6
2023-01-17T16:51:32.049Z,1.6
2023-01-17T16:54:02.856Z,1.6
2023-01-17T16:56:33.626Z,2.5
2023-01-17T16:59:04.397Z,2.2
2023-01-17T17:01:35.464Z,2.2
2023-01-17T17:04:16.227Z,1.9
2023-01-17T17:09:17.123Z,3.0
2023-01-17T17:11:47.904Z,2.7
2023-01-17T17:14:18.644Z,3.0
2023-01-17T17:16:49.373Z,1.9
2023-01-17T17:19:30.106Z,2.2
2023-01-17T17:22:00.873Z,1.9
2023-01-17T17:24:31.595Z,1.3
2023-01-17T17:27:02.344Z,1.6
2023-01-17T17:29:33.094Z,0.8
2023-01-17T17:32:13.869Z,1.9
2023-01-17T17:34:44.593Z,1.1
2023-01-17T17:37:15.339Z,1.3
2023-01-17T17:39:46.103Z,0.2
2023-01-17T17:42:16.858Z,0.5
2023-01-17T17:44:47.613Z,0.0
2023-01-17T17:49:58.521Z,0.0
2023-01-17T17:52:29.261Z,0.0
2023-01-17T17:55:00.073Z,0.0
2023-01-17T17:57:30.904Z,0.2
2023-01-17T18:02:41.843Z,0.0
2023-01-17T18:05:12.884Z,0.0
2023-01-17T18:07:43.640Z,0.0
2023-01-17T18:10:14.428Z,0.0
2023-01-17T18:12:45.178Z,0.2
2023-01-17T18:15:15.978Z,1.1
2023-01-17T18:17:56.736Z,2.2
2023-01-17T18:20:28.352Z,0.8
2023-01-17T18:22:59.118Z,0.8
2023-01-17T18:25:29.893Z,0.8
2023-01-17T18:30:30.796Z,0.0
2023-01-17T18:33:11.571Z,0.8
2023-01-17T18:35:42.360Z,0.0
2023-01-17T18:38:13.567Z,0.2
2023-01-17T18:40:44.341Z,0.8
2023-01-17T18:43:15.470Z,0.5
2023-01-17T18:45:46.221Z,0.0
2023-01-17T18:48:27.561Z,0.2
2023-01-17T18:50:58.325Z,1.3
2023-01-17T18:53:29.055Z,1.1
2023-01-17T18:56:00.059Z,0.0
2023-01-17T18:58:30.819Z,0.0
2023-01-17T19:01:11.946Z,0.8
2023-01-17T19:03:42.842Z,1.1
2023-01-17T19:06:13.611Z,1.1
2023-01-17T19:11:14.546Z,0.0
2023-01-17T19:13:45.437Z,0.5
2023-01-17T19:16:26.287Z,0.2
2023-01-17T19:18:57.087Z,0.2
2023-01-17T19:21:27.883Z,0.0
2023-01-17T19:23:58.695Z,0.5
2023-01-17T19:26:29.442Z,0.0
2023-01-17T19:29:00.231Z,0.5
2023-01-17T19:31:41.196Z,1.6
2023-01-17T19:34:11.967Z,1.1
2023-01-17T19:36:42.797Z,1.9
2023-01-17T19:39:24.483Z,0.8
2023-01-17T19:41:45.447Z,0.0
2023-01-17T19:44:16.327Z,0.5
2023-01-17T19:46:57.147Z,1.9
2023-01-17T19:51:58.061Z,1.1
2023-01-17T19:54:29.116Z,0.2
2023-01-17T19:56:59.889Z,1.1
2023-01-17T19:59:40.680Z,0.0
2023-01-17T20:02:12.246Z,0.2
2023-01-17T20:04:43.060Z,0.0
2023-01-17T20:07:13.864Z,0.0
2023-01-17T20:09:44.627Z,0.0
2023-01-17T20:12:15.380Z,0.0
2023-01-17T20:14:56.149Z,0.0
2023-01-17T20:17:26.932Z,0.0
2023-01-17T20:19:57.754Z,0.0
2023-01-17T20:22:28.532Z,0.0
2023-01-17T20:24:59.275Z,0.0
2023-01-17T20:27:30.058Z,0.0
2023-01-17T20:32:40.913Z,0.0
2023-01-17T20:35:11.714Z,0.0
2023-01-17T20:37:42.470Z,0.0
2023-01-17T20:40:13.248Z,0.0
2023-01-17T20:42:44.025Z,0.0
2023-01-17T20:47:55.324Z,0.0
2023-01-17T20:50:26.256Z,0.0
2023-01-17T20:52:57.033Z,0.0
2023-01-17T20:55:27.820Z,0.0
2023-01-17T20:57:58.742Z,0.0
2023-01-17T21:00:39.635Z,0.0
2023-01-17T21:03:10.473Z,0.0
2023-01-17T21:05:41.243Z,0.0
2023-01-17T21:08:11.996Z,0.0
2023-01-17T21:13:22.908Z,0.0
2023-01-17T21:15:53.659Z,0.0
2023-01-17T21:18:24.403Z,0.0
2023-01-17T21:20:55.170Z,0.0
2023-01-17T21:23:25.914Z,0.0
2023-01-17T21:25:56.688Z,0.0
2023-01-17T21:28:37.453Z,0.0
2023-01-17T21:31:08.388Z,0.0
2023-01-17T21:33:39.123Z,0.0
2023-01-17T21:36:09.900Z,0.0
2023-01-17T21:38:40.641Z,0.0
2023-01-17T21:41:11.388Z,0.0
2023-01-17T21:43:52.130Z,0.0
2023-01-17T21:46:23.091Z,0.0
2023-01-17T21:48:53.863Z,0.0
2023-01-17T21:53:54.899Z,0.8
2023-01-17T21:56:25.660Z,0.2
2023-01-17T21:59:06.421Z,0.0
2023-01-17T22:01:37.568Z,0.0
2023-01-17T22:04:08.362Z,0.0
2023-01-17T22:06:39.214Z,0.0
2023-01-17T22:09:10.024Z,0.0
2023-01-17T22:11:51.020Z,0.0
2023-01-17T22:14:21.808Z,0.0
2023-01-17T22:16:52.560Z,0.0
2023-01-17T22:19:23.297Z,0.0
2023-01-17T22:21:54.087Z,0.0
2023-01-17T22:24:24.813Z,0.0
2023-01-17T22:27:05.594Z,0.0
2023-01-17T22:29:36.539Z,0.0
2023-01-17T22:34:37.501Z,0.0
2023-01-17T22:37:08.279Z,0.0
2023-01-17T22:39:39.081Z,0.0
2023-01-17T22:42:19.859Z,0.0
2023-01-17T22:44:50.616Z,0.0
2023-01-17T22:47:21.387Z,0.0
2023-01-17T22:49:52.146Z,0.0
2023-01-17T22:52:22.914Z,0.0
2023-01-17T22:54:53.685Z,0.0
2023-01-17T22:57:34.481Z,0.0
2023-01-17T23:00:05.272Z,0.0
2023-01-17T23:02:37.179Z,0.0
2023-01-17T23:05:08.032Z,0.0
2023-01-17T23:07:38.770Z,0.0
2023-01-17T23:10:19.598Z,0.0
2023-01-17T23:15:20.546Z,0.0
2023-01-17T23:17:51.322Z,0.0
2023-01-17T23:20:22.135Z,0.0
2023-01-17T23:22:52.962Z,0.0
2023-01-17T23:25:33.755Z,0.0
2023-01-17T23:28:04.500Z,0.0
2023-01-17T23:30:35.379Z,0.0
2023-01-17T23:33:06.681Z,0.0
2023-01-17T23:35:41.408Z,0.0
2023-01-17T23:38:02.454Z,0.0
2023-01-17T23:40:43.325Z,0.0
2023-01-17T23:43:14.131Z,0.0
2023-01-17T23:45:44.911Z,0.0
2023-01-17T23:48:15.859Z,0.0
2023-01-17T23:50:46.653Z,0.0
2023-01-17T23:55:57.695Z,0.0
2023-01-17T23:58:28.459Z,0.0
